createdAt,value
2018-03-16T00:00:20.866Z,2.41
2018-03-16T00:01:30.580Z,2.36
2018-03-16T00:02:40.790Z,2.41
2018-03-16T00:03:50.745Z,2.46
2018-03-16T00:05:00.456Z,2.37
2018-03-16T00:06:10.154Z,2.36
2018-03-16T00:07:20.147Z,2.33
2018-03-16T00:08:30.128Z,2.34
2018-03-16T00:09:39.873Z,2.3
2018-03-16T00:10:49.041Z,2.33
2018-03-16T00:11:58.219Z,2.36
2018-03-16T00:13:08.429Z,2.34
2018-03-16T00:14:18.401Z,2.36
2018-03-16T00:15:27.855Z,2.3
2018-03-16T00:16:37.562Z,2.39
2018-03-16T00:17:47.273Z,2.32
2018-03-16T00:18:56.986Z,2.4
2018-03-16T00:20:06.973Z,2.25
2018-03-16T00:21:16.927Z,2.28
2018-03-16T00:22:26.625Z,2.37
2018-03-16T00:23:36.325Z,2.44
2018-03-16T00:24:45.767Z,2.3
2018-03-16T00:25:55.733Z,2.37
2018-03-16T00:27:05.431Z,2.32
2018-03-16T00:28:15.402Z,2.26
2018-03-16T00:29:25.104Z,2.39
2018-03-16T00:30:34.846Z,2.33
2018-03-16T00:31:44.542Z,2.37
2018-03-16T00:32:53.984Z,2.23
2018-03-16T00:34:03.159Z,2.39
2018-03-16T00:35:12.857Z,2.36
2018-03-16T00:36:22.565Z,2.28
2018-03-16T00:37:32.266Z,2.36
2018-03-16T00:38:41.962Z,2.25
2018-03-16T00:39:51.399Z,2.34
2018-03-16T00:41:00.832Z,2.34
2018-03-16T00:42:10.539Z,2.32
2018-03-16T00:43:20.252Z,2.32
2018-03-16T00:44:29.949Z,2.37
2018-03-16T00:45:39.648Z,2.28
2018-03-16T00:46:49.348Z,2.34
2018-03-16T00:47:59.300Z,2.32
2018-03-16T00:49:09.007Z,2.28
2018-03-16T00:50:19.031Z,2.23
2018-03-16T00:51:28.995Z,2.23
2018-03-16T00:52:38.955Z,2.26
2018-03-16T00:53:48.665Z,2.23
2018-03-16T00:54:58.628Z,2.23
2018-03-16T00:56:08.320Z,2.3
2018-03-16T00:57:18.023Z,2.32
2018-03-16T00:58:27.979Z,2.33
2018-03-16T00:59:37.691Z,2.23
2018-03-16T01:00:47.896Z,2.26
2018-03-16T01:01:57.593Z,2.25
2018-03-16T01:03:07.547Z,2.3
2018-03-16T01:04:17.500Z,2.3
2018-03-16T01:05:27.203Z,2.26
2018-03-16T01:06:37.183Z,2.22
2018-03-16T01:07:46.878Z,2.14
2018-03-16T01:08:56.583Z,2.14
2018-03-16T01:10:06.542Z,2.14
2018-03-16T01:11:16.235Z,2.18
2018-03-16T01:12:25.927Z,2.15
2018-03-16T01:13:35.879Z,2.1
2018-03-16T01:14:45.568Z,2.15
2018-03-16T01:15:55.524Z,2.16
2018-03-16T01:17:05.238Z,2.08
2018-03-16T01:18:15.208Z,2.07
2018-03-16T01:19:24.655Z,2.04
2018-03-16T01:20:34.611Z,2.04
2018-03-16T01:21:44.557Z,2.03
2018-03-16T01:22:54.256Z,2.04
2018-03-16T01:24:03.962Z,2.08
2018-03-16T01:25:13.140Z,2.15
2018-03-16T01:26:22.826Z,2.08
2018-03-16T01:27:32.515Z,2.07
2018-03-16T01:28:41.943Z,2.07
2018-03-16T01:29:51.909Z,2.07
2018-03-16T01:31:01.928Z,2.07
2018-03-16T01:32:11.631Z,1.98
2018-03-16T01:33:21.585Z,2
2018-03-16T01:34:31.285Z,2.01
2018-03-16T01:35:41.038Z,1.93
2018-03-16T01:36:50.485Z,1.98
2018-03-16T01:37:59.925Z,2.01
2018-03-16T01:39:09.895Z,1.92
2018-03-16T01:40:19.595Z,1.89
2018-03-16T01:41:29.044Z,2.07
2018-03-16T01:42:38.491Z,2
2018-03-16T01:43:48.174Z,2.03
2018-03-16T01:44:57.613Z,2
2018-03-16T01:46:07.560Z,2.04
2018-03-16T01:47:17.002Z,2.04
2018-03-16T01:48:26.445Z,2.03
2018-03-16T01:49:35.890Z,2.05
2018-03-16T01:50:45.342Z,1.97
2018-03-16T01:51:55.044Z,2.04
2018-03-16T01:53:04.754Z,1.97
2018-03-16T01:54:14.712Z,1.97
2018-03-16T01:55:24.151Z,1.88
2018-03-16T01:56:34.115Z,1.97
2018-03-16T01:57:44.076Z,1.93
2018-03-16T01:58:54.024Z,1.97
2018-03-16T02:00:03.465Z,1.95
2018-03-16T02:01:13.165Z,1.93
2018-03-16T02:02:23.122Z,1.97
2018-03-16T02:03:33.093Z,1.93
2018-03-16T02:04:42.781Z,1.93
2018-03-16T02:05:52.481Z,1.92
2018-03-16T02:07:02.432Z,1.86
2018-03-16T02:08:12.135Z,1.89
2018-03-16T02:09:21.830Z,1.86
2018-03-16T02:10:31.538Z,1.89
2018-03-16T02:11:41.513Z,1.89
2018-03-16T02:12:51.217Z,1.86
2018-03-16T02:14:00.671Z,1.86
2018-03-16T02:15:10.633Z,1.85
2018-03-16T02:16:20.327Z,1.93
2018-03-16T02:17:30.030Z,1.95
2018-03-16T02:18:39.721Z,1.97
2018-03-16T02:19:49.151Z,1.95
2018-03-16T02:20:58.845Z,1.97
2018-03-16T02:22:08.289Z,1.85
2018-03-16T02:23:18.248Z,1.95
2018-03-16T02:24:28.196Z,2
2018-03-16T02:25:37.890Z,1.95
2018-03-16T02:26:47.847Z,2.01
2018-03-16T02:27:57.587Z,1.95
2018-03-16T02:29:07.017Z,1.89
2018-03-16T02:30:17.000Z,1.88
2018-03-16T02:31:26.731Z,1.81
2018-03-16T02:32:36.699Z,1.75
2018-03-16T02:33:46.400Z,1.78
2018-03-16T02:34:56.356Z,1.89
2018-03-16T02:36:06.566Z,1.81
2018-03-16T02:37:16.261Z,1.82
2018-03-16T02:38:25.967Z,1.81
2018-03-16T02:39:35.926Z,1.76
2018-03-16T02:40:45.123Z,1.79
2018-03-16T02:41:55.087Z,1.85
2018-03-16T02:43:04.527Z,1.75
2018-03-16T02:44:14.222Z,1.76
2018-03-16T02:45:23.658Z,1.76
2018-03-16T02:46:33.616Z,1.79
2018-03-16T02:47:43.584Z,1.76
2018-03-16T02:48:53.546Z,1.84
2018-03-16T02:50:03.265Z,1.76
2018-03-16T02:51:13.190Z,1.75
2018-03-16T02:52:22.899Z,1.84
2018-03-16T02:53:32.864Z,1.76
2018-03-16T02:54:42.838Z,1.84
2018-03-16T02:55:52.553Z,1.81
2018-03-16T02:57:02.508Z,1.79
2018-03-16T02:58:12.479Z,1.78
2018-03-16T02:59:22.178Z,1.76
2018-03-16T03:00:31.623Z,1.7
2018-03-16T03:01:40.805Z,1.74
2018-03-16T03:02:50.501Z,1.75
2018-03-16T03:04:00.470Z,1.76
2018-03-16T03:05:10.165Z,1.61
2018-03-16T03:06:19.866Z,1.61
2018-03-16T03:07:29.583Z,1.63
2018-03-16T03:08:39.295Z,1.5
2018-03-16T03:09:49.265Z,1.5
2018-03-16T03:10:59.213Z,1.57
2018-03-16T03:12:08.918Z,1.52
2018-03-16T03:13:18.362Z,1.52
2018-03-16T03:14:28.327Z,1.57
2018-03-16T03:15:38.274Z,1.61
2018-03-16T03:16:48.226Z,1.56
2018-03-16T03:17:58.176Z,1.52
2018-03-16T03:19:07.352Z,1.58
2018-03-16T03:20:17.306Z,1.56
2018-03-16T03:21:27.260Z,1.63
2018-03-16T03:22:37.208Z,1.57
2018-03-16T03:23:47.160Z,1.57
2018-03-16T03:24:56.855Z,1.56
2018-03-16T03:26:06.806Z,1.6
2018-03-16T03:27:16.755Z,1.52
2018-03-16T03:28:26.454Z,1.58
2018-03-16T03:29:35.891Z,1.53
2018-03-16T03:30:45.868Z,1.52
2018-03-16T03:31:55.304Z,1.53
2018-03-16T03:33:05.004Z,1.52
2018-03-16T03:34:14.756Z,1.45
2018-03-16T03:35:24.777Z,1.45
2018-03-16T03:36:34.486Z,1.49
2018-03-16T03:37:44.729Z,1.48
2018-03-16T03:38:54.690Z,1.46
2018-03-16T03:40:04.645Z,1.43
2018-03-16T03:41:14.347Z,1.5
2018-03-16T03:42:24.300Z,1.48
2018-03-16T03:43:34.271Z,1.52
2018-03-16T03:44:44.236Z,1.46
2018-03-16T03:45:54.182Z,1.48
2018-03-16T03:47:03.883Z,1.45
2018-03-16T03:48:13.575Z,1.46
2018-03-16T03:49:23.531Z,1.45
2018-03-16T03:50:33.481Z,1.45
2018-03-16T03:51:43.427Z,1.57
2018-03-16T03:52:53.396Z,1.5
2018-03-16T03:54:03.349Z,1.5
2018-03-16T03:55:13.304Z,1.39
2018-03-16T03:56:23.253Z,1.39
2018-03-16T03:57:33.210Z,1.46
2018-03-16T03:58:43.266Z,1.31
2018-03-16T03:59:53.238Z,1.46
2018-03-16T04:01:03.197Z,1.45
2018-03-16T04:02:12.896Z,1.3
2018-03-16T04:03:22.594Z,1.49
2018-03-16T04:04:31.776Z,1.4
2018-03-16T04:05:41.728Z,1.46
2018-03-16T04:06:51.687Z,1.4
2018-03-16T04:08:00.887Z,1.4
2018-03-16T04:09:10.901Z,1.36
2018-03-16T04:10:20.599Z,1.49
2018-03-16T04:11:30.038Z,1.52
2018-03-16T04:12:40.003Z,1.4
2018-03-16T04:13:49.954Z,1.49
2018-03-16T04:14:59.947Z,1.39
2018-03-16T04:16:09.904Z,1.32
2018-03-16T04:17:19.354Z,1.42
2018-03-16T04:18:29.049Z,1.43
2018-03-16T04:19:38.758Z,1.34
2018-03-16T04:20:48.195Z,1.4
2018-03-16T04:21:57.888Z,1.38
2018-03-16T04:23:07.850Z,1.36
2018-03-16T04:24:17.555Z,1.43
2018-03-16T04:25:27.548Z,1.32
2018-03-16T04:26:37.263Z,1.4
2018-03-16T04:27:47.211Z,1.34
2018-03-16T04:28:56.907Z,1.38
2018-03-16T04:30:06.350Z,1.34
2018-03-16T04:31:16.352Z,1.34
2018-03-16T04:32:25.842Z,1.39
2018-03-16T04:33:35.278Z,1.22
2018-03-16T04:34:45.036Z,1.38
2018-03-16T04:35:55.003Z,1.31
2018-03-16T04:37:04.181Z,1.38
2018-03-16T04:38:13.361Z,1.31
2018-03-16T04:39:22.798Z,1.36
2018-03-16T04:40:32.238Z,1.31
2018-03-16T04:41:41.936Z,1.24
2018-03-16T04:42:51.896Z,1.24
2018-03-16T04:44:01.583Z,1.24
2018-03-16T04:45:11.297Z,1.14
2018-03-16T04:46:21.246Z,1.24
2018-03-16T04:47:31.195Z,1.24
2018-03-16T04:48:41.158Z,1.16
2018-03-16T04:49:51.126Z,1.24
2018-03-16T04:51:00.826Z,1.25
2018-03-16T04:52:10.805Z,1.24
2018-03-16T04:53:20.506Z,1.28
2018-03-16T04:54:30.209Z,1.21
2018-03-16T04:55:40.160Z,1.24
2018-03-16T04:56:50.115Z,1.22
2018-03-16T04:58:00.073Z,1.28
2018-03-16T04:59:10.078Z,1.25
2018-03-16T05:00:19.527Z,1.24
2018-03-16T05:01:29.226Z,1.22
2018-03-16T05:02:38.921Z,1.25
2018-03-16T05:03:48.628Z,1.31
2018-03-16T05:04:58.323Z,1.24
2018-03-16T05:06:08.282Z,1.3
2018-03-16T05:07:17.980Z,1.25
2018-03-16T05:08:27.414Z,1.27
2018-03-16T05:09:37.370Z,1.24
2018-03-16T05:10:47.331Z,1.22
2018-03-16T05:11:57.332Z,1.27
2018-03-16T05:13:07.040Z,1.31
2018-03-16T05:14:16.989Z,1.24
2018-03-16T05:15:26.186Z,1.16
2018-03-16T05:16:35.364Z,1.25
2018-03-16T05:17:45.056Z,1.24
2018-03-16T05:18:55.018Z,1.25
2018-03-16T05:20:04.710Z,1.25
2018-03-16T05:21:14.674Z,1.24
2018-03-16T05:22:24.639Z,1.25
2018-03-16T05:23:34.361Z,1.21
2018-03-16T05:24:44.076Z,1.21
2018-03-16T05:25:53.777Z,1.21
2018-03-16T05:27:03.223Z,1.18
2018-03-16T05:28:12.930Z,1.22
2018-03-16T05:29:22.885Z,1.27
2018-03-16T05:30:33.104Z,1.24
2018-03-16T05:31:43.095Z,1.25
2018-03-16T05:32:52.546Z,1.25
2018-03-16T05:34:02.507Z,1.22
2018-03-16T05:35:12.217Z,1.24
2018-03-16T05:36:21.389Z,1.24
2018-03-16T05:37:31.092Z,1.14
2018-03-16T05:38:40.788Z,1.16
2018-03-16T05:39:50.742Z,1.24
2018-03-16T05:41:00.444Z,1.13
2018-03-16T05:42:10.428Z,1.04
2018-03-16T05:43:19.886Z,0.96
2018-03-16T05:44:29.859Z,1.02
2018-03-16T05:45:39.823Z,0.96
2018-03-16T05:46:49.780Z,1
2018-03-16T05:47:59.490Z,0.95
2018-03-16T05:49:09.235Z,0.94
2018-03-16T05:50:19.190Z,0.95
2018-03-16T05:51:28.893Z,1.04
2018-03-16T05:52:38.606Z,1.06
2018-03-16T05:53:48.323Z,0.92
2018-03-16T05:54:58.361Z,0.99
2018-03-16T05:56:08.053Z,1.02
2018-03-16T05:57:18.013Z,0.96
2018-03-16T05:58:27.967Z,0.99
2018-03-16T05:59:37.701Z,1.02
2018-03-16T06:00:47.242Z,0.99
2018-03-16T06:01:56.859Z,1.02
2018-03-16T06:03:06.550Z,0.89
2018-03-16T06:04:16.240Z,0.85
2018-03-16T06:05:25.950Z,0.91
2018-03-16T06:06:35.924Z,0.99
2018-03-16T06:07:45.881Z,1
2018-03-16T06:08:55.576Z,0.99
2018-03-16T06:10:05.540Z,0.94
2018-03-16T06:11:15.267Z,0.94
2018-03-16T06:12:24.710Z,0.89
2018-03-16T06:13:34.419Z,0.88
2018-03-16T06:14:44.369Z,0.89
2018-03-16T06:15:53.814Z,0.91
2018-03-16T06:17:03.565Z,0.86
2018-03-16T06:18:13.537Z,0.94
2018-03-16T06:19:23.230Z,0.86
2018-03-16T06:20:33.000Z,0.86
2018-03-16T06:21:42.481Z,0.85
2018-03-16T06:22:51.952Z,0.88
2018-03-16T06:24:01.403Z,0.86
2018-03-16T06:25:11.387Z,0.84
2018-03-16T06:26:21.082Z,0.94
2018-03-16T06:27:30.270Z,0.94
2018-03-16T06:28:40.238Z,0.88
2018-03-16T06:29:50.254Z,0.96
2018-03-16T06:30:59.957Z,0.91
2018-03-16T06:32:09.657Z,0.89
2018-03-16T06:33:19.358Z,0.86
2018-03-16T06:34:28.284Z,0.91
2018-03-16T06:35:38.261Z,0.91
2018-03-16T06:36:47.728Z,0.84
2018-03-16T06:37:57.428Z,0.92
2018-03-16T06:39:07.128Z,0.89
2018-03-16T06:40:16.827Z,1
2018-03-16T06:41:26.270Z,0.85
2018-03-16T06:42:35.745Z,0.84
2018-03-16T06:43:45.928Z,0.85
2018-03-16T06:44:55.620Z,0.82
2018-03-16T06:46:05.589Z,0.81
2018-03-16T06:47:15.551Z,0.71
2018-03-16T06:48:25.505Z,0.76
2018-03-16T06:49:35.455Z,0.74
2018-03-16T06:50:45.413Z,0.7
2018-03-16T06:51:55.269Z,0.67
2018-03-16T06:53:05.314Z,0.71
2018-03-16T06:54:15.284Z,0.64
2018-03-16T06:55:25.243Z,0.7
2018-03-16T06:56:34.951Z,0.67
2018-03-16T06:57:44.394Z,0.66
2018-03-16T06:58:54.381Z,0.74
2018-03-16T07:00:04.095Z,0.71
2018-03-16T07:01:14.083Z,0.74
2018-03-16T07:02:23.794Z,0.67
2018-03-16T07:03:33.493Z,0.71
2018-03-16T07:04:43.196Z,0.71
2018-03-16T07:05:53.154Z,0.84
2018-03-16T07:07:03.132Z,0.7
2018-03-16T07:08:12.591Z,0.78
2018-03-16T07:09:22.560Z,0.85
2018-03-16T07:10:32.270Z,0.82
2018-03-16T07:11:41.481Z,0.84
2018-03-16T07:12:50.925Z,0.82
2018-03-16T07:14:00.375Z,0.85
2018-03-16T07:15:10.080Z,0.84
2018-03-16T07:16:19.556Z,0.89
2018-03-16T07:17:29.090Z,0.85
2018-03-16T07:18:39.100Z,0.89
2018-03-16T07:19:48.548Z,0.91
2018-03-16T07:20:57.997Z,1
2018-03-16T07:22:07.953Z,0.88
2018-03-16T07:23:17.753Z,0.91
2018-03-16T07:24:27.459Z,0.91
2018-03-16T07:25:37.170Z,0.99
2018-03-16T07:26:46.865Z,1.03
2018-03-16T07:27:56.854Z,1.02
2018-03-16T07:29:06.044Z,0.95
2018-03-16T07:30:15.750Z,1.03
2018-03-16T07:31:25.482Z,0.94
2018-03-16T07:32:34.932Z,1.04
2018-03-16T07:33:44.900Z,1
2018-03-16T07:34:54.344Z,0.96
2018-03-16T07:36:04.074Z,1
2018-03-16T07:37:13.908Z,1.02
2018-03-16T07:38:23.904Z,0.94
2018-03-16T07:39:33.623Z,1
2018-03-16T07:40:43.592Z,0.99
2018-03-16T07:41:53.568Z,1.06
2018-03-16T07:43:03.522Z,1.12
2018-03-16T07:44:13.239Z,1.13
2018-03-16T07:45:23.225Z,1.04
2018-03-16T07:46:33.194Z,1.16
2018-03-16T07:47:42.999Z,1.13
2018-03-16T07:48:52.440Z,1.04
2018-03-16T07:50:02.405Z,1.1
2018-03-16T07:51:11.873Z,1.04
2018-03-16T07:52:21.578Z,1.1
2018-03-16T07:53:31.530Z,0.99
2018-03-16T07:54:41.244Z,0.96
2018-03-16T07:55:51.229Z,1.12
2018-03-16T07:57:01.231Z,1.12
2018-03-16T07:58:11.214Z,1.1
2018-03-16T07:59:21.174Z,1.07
2018-03-16T08:00:31.153Z,1.07
2018-03-16T08:01:41.120Z,1.09
2018-03-16T08:02:51.086Z,1.09
2018-03-16T08:04:01.059Z,1.04
2018-03-16T08:05:11.027Z,1.09
2018-03-16T08:06:20.992Z,1.1
2018-03-16T08:07:31.049Z,1.06
2018-03-16T08:08:41.037Z,0.91
2018-03-16T08:09:50.537Z,0.95
2018-03-16T08:11:00.004Z,0.99
2018-03-16T08:12:09.965Z,0.99
2018-03-16T08:13:19.674Z,0.96
2018-03-16T08:14:29.912Z,0.91
2018-03-16T08:15:39.911Z,1.09
2018-03-16T08:16:49.644Z,0.99
2018-03-16T08:17:59.653Z,0.96
2018-03-16T08:19:09.433Z,1.03
2018-03-16T08:20:19.166Z,1.07
2018-03-16T08:21:29.166Z,1.09
2018-03-16T08:22:39.143Z,1.07
2018-03-16T08:23:49.122Z,1.1
2018-03-16T08:24:59.101Z,1.13
2018-03-16T08:26:09.135Z,1.16
2018-03-16T08:27:19.112Z,1.2
2018-03-16T08:28:29.093Z,1.13
2018-03-16T08:29:38.973Z,1.09
2018-03-16T08:30:48.693Z,1.1
2018-03-16T08:31:58.154Z,1.09
2018-03-16T08:33:07.875Z,1.1
2018-03-16T08:34:17.850Z,1.09
2018-03-16T08:35:27.861Z,1.1
2018-03-16T08:36:37.842Z,1.03
2018-03-16T08:37:47.821Z,1.12
2018-03-16T08:38:57.546Z,0.94
2018-03-16T08:40:07.281Z,1
2018-03-16T08:41:16.730Z,1.03
2018-03-16T08:42:26.466Z,1.04
2018-03-16T08:43:36.174Z,1
2018-03-16T08:44:45.871Z,0.95
2018-03-16T08:45:55.637Z,1.1
2018-03-16T08:47:05.736Z,1.06
2018-03-16T08:48:15.463Z,1.1
2018-03-16T08:49:25.454Z,1.07
2018-03-16T08:50:35.457Z,1.09
2018-03-16T08:51:45.168Z,1.09
2018-03-16T08:52:54.411Z,1.1
2018-03-16T08:54:04.142Z,1.1
2018-03-16T08:55:13.878Z,1.13
2018-03-16T08:56:23.325Z,1.12
2018-03-16T08:57:33.282Z,1.12
2018-03-16T08:58:42.996Z,1.03
2018-03-16T08:59:53.024Z,1.06
2018-03-16T09:01:02.476Z,1.06
2018-03-16T09:02:11.920Z,1.07
2018-03-16T09:03:21.394Z,1.09
2018-03-16T09:04:31.103Z,1.1
2018-03-16T09:05:41.100Z,1.12
2018-03-16T09:06:50.544Z,1.1
2018-03-16T09:08:00.519Z,1.07
2018-03-16T09:09:10.509Z,1.12
2018-03-16T09:10:20.503Z,1.06
2018-03-16T09:11:30.462Z,1.07
2018-03-16T09:12:39.927Z,1.14
2018-03-16T09:13:49.622Z,1.03
2018-03-16T09:14:59.597Z,1.12
2018-03-16T09:16:09.572Z,1.14
2018-03-16T09:17:19.537Z,1.09
2018-03-16T09:18:28.992Z,1.14
2018-03-16T09:19:38.986Z,1.24
2018-03-16T09:20:48.952Z,1.24
2018-03-16T09:21:58.672Z,1.14
2018-03-16T09:23:08.169Z,1.13
2018-03-16T09:24:18.140Z,1.18
2018-03-16T09:25:27.621Z,1.18
2018-03-16T09:26:37.709Z,1.2
2018-03-16T09:27:47.455Z,1.3
2018-03-16T09:28:57.158Z,1.27
2018-03-16T09:30:06.609Z,1.28
2018-03-16T09:31:16.312Z,1.31
2018-03-16T09:32:26.026Z,1.25
2018-03-16T09:33:35.740Z,1.42
2018-03-16T09:34:45.450Z,1.43
2018-03-16T09:35:55.235Z,1.34
2018-03-16T09:37:05.209Z,1.34
2018-03-16T09:38:14.913Z,1.27
2018-03-16T09:39:24.389Z,1.25
2018-03-16T09:40:33.833Z,1.3
2018-03-16T09:41:43.801Z,1.27
2018-03-16T09:42:53.755Z,1.27
2018-03-16T09:44:03.196Z,1.16
2018-03-16T09:45:12.899Z,1.24
2018-03-16T09:46:22.857Z,1.3
2018-03-16T09:47:32.030Z,1.32
2018-03-16T09:48:41.218Z,1.22
2018-03-16T09:49:51.477Z,1.3
2018-03-16T09:51:00.936Z,1.3
2018-03-16T09:52:10.909Z,1.25
2018-03-16T09:53:20.357Z,1.3
2018-03-16T09:54:30.070Z,1.21
2018-03-16T09:55:40.033Z,1.22
2018-03-16T09:56:49.476Z,1.2
2018-03-16T09:57:59.463Z,1.18
2018-03-16T09:59:08.399Z,1.18
2018-03-16T10:00:17.881Z,1.12
2018-03-16T10:01:27.851Z,1.14
2018-03-16T10:02:37.840Z,1.09
2018-03-16T10:03:47.833Z,1.16
2018-03-16T10:04:57.338Z,1.1
2018-03-16T10:06:07.330Z,1.06
2018-03-16T10:07:17.313Z,1
2018-03-16T10:08:27.291Z,1.04
2018-03-16T10:09:37.052Z,0.96
2018-03-16T10:10:46.823Z,0.94
2018-03-16T10:11:56.387Z,0.96
2018-03-16T10:13:06.161Z,0.95
2018-03-16T10:14:16.118Z,0.89
2018-03-16T10:15:26.085Z,0.89
2018-03-16T10:16:36.080Z,0.95
2018-03-16T10:17:45.860Z,0.89
2018-03-16T10:18:55.869Z,0.96
2018-03-16T10:20:05.841Z,0.86
2018-03-16T10:21:15.546Z,0.82
2018-03-16T10:22:25.513Z,0.81
2018-03-16T10:23:34.954Z,0.84
2018-03-16T10:24:44.930Z,0.84
2018-03-16T10:25:54.639Z,0.86
2018-03-16T10:27:04.358Z,0.88
2018-03-16T10:28:14.332Z,0.81
2018-03-16T10:29:24.032Z,0.89
2018-03-16T10:30:34.000Z,0.91
2018-03-16T10:31:43.981Z,0.86
2018-03-16T10:32:53.710Z,0.84
2018-03-16T10:34:03.667Z,0.86
2018-03-16T10:35:13.379Z,0.89
2018-03-16T10:36:23.088Z,0.84
2018-03-16T10:37:32.792Z,0.92
2018-03-16T10:38:42.510Z,0.91
2018-03-16T10:39:52.518Z,0.86
2018-03-16T10:41:02.508Z,0.89
2018-03-16T10:42:12.494Z,0.89
2018-03-16T10:43:22.500Z,0.77
2018-03-16T10:44:32.220Z,0.88
2018-03-16T10:45:42.290Z,0.91
2018-03-16T10:46:51.724Z,0.88
2018-03-16T10:48:01.687Z,0.86
2018-03-16T10:49:11.662Z,0.76
2018-03-16T10:50:21.389Z,0.84
2018-03-16T10:51:31.101Z,0.76
2018-03-16T10:52:40.844Z,0.77
2018-03-16T10:53:50.546Z,0.85
2018-03-16T10:55:00.512Z,0.82
2018-03-16T10:56:10.488Z,0.81
2018-03-16T10:57:20.206Z,0.84
2018-03-16T10:58:30.171Z,0.84
2018-03-16T10:59:40.186Z,0.88
2018-03-16T11:00:49.890Z,0.95
2018-03-16T11:01:59.598Z,0.88
2018-03-16T11:03:09.300Z,0.91
2018-03-16T11:04:19.274Z,0.86
2018-03-16T11:05:28.970Z,1
2018-03-16T11:06:38.681Z,0.91
2018-03-16T11:07:48.449Z,0.88
2018-03-16T11:08:57.900Z,1.02
2018-03-16T11:10:07.351Z,0.99
2018-03-16T11:11:16.825Z,0.95
2018-03-16T11:12:26.554Z,0.86
2018-03-16T11:13:36.298Z,0.82
2018-03-16T11:14:46.028Z,0.82
2018-03-16T11:15:55.481Z,0.86
2018-03-16T11:17:05.210Z,0.82
2018-03-16T11:18:14.942Z,0.81
2018-03-16T11:19:24.425Z,0.81
2018-03-16T11:20:34.159Z,0.78
2018-03-16T11:21:43.918Z,0.76
2018-03-16T11:22:53.489Z,0.78
2018-03-16T11:24:03.555Z,0.73
2018-03-16T11:25:13.291Z,0.67
2018-03-16T11:26:23.276Z,0.67
2018-03-16T11:27:33.343Z,0.68
2018-03-16T11:28:42.812Z,0.63
2018-03-16T11:29:52.310Z,0.68
2018-03-16T11:31:02.293Z,0.64
2018-03-16T11:32:11.761Z,0.67
2018-03-16T11:33:21.538Z,0.63
2018-03-16T11:34:31.517Z,0.58
2018-03-16T11:35:40.969Z,0.58
2018-03-16T11:36:50.705Z,0.59
2018-03-16T11:38:00.148Z,0.59
2018-03-16T11:39:09.900Z,0.51
2018-03-16T11:40:19.895Z,0.51
2018-03-16T11:41:29.906Z,0.52
2018-03-16T11:42:39.864Z,0.48
2018-03-16T11:43:49.577Z,0.55
2018-03-16T11:44:59.607Z,0.55
2018-03-16T11:46:09.575Z,0.59
2018-03-16T11:47:19.783Z,0.63
2018-03-16T11:48:29.771Z,0.52
2018-03-16T11:49:39.760Z,0.61
2018-03-16T11:50:49.477Z,0.55
2018-03-16T11:51:59.184Z,0.59
2018-03-16T11:53:08.898Z,0.52
2018-03-16T11:54:18.804Z,0.56
2018-03-16T11:55:28.003Z,0.45
2018-03-16T11:56:37.479Z,0.55
2018-03-16T11:57:47.181Z,0.47
2018-03-16T11:58:56.639Z,0.47
2018-03-16T12:00:06.613Z,0.58
2018-03-16T12:01:16.318Z,0.51
2018-03-16T12:02:26.274Z,0.42
2018-03-16T12:03:35.744Z,0.55
2018-03-16T12:04:45.707Z,0.52
2018-03-16T12:05:55.159Z,0.58
2018-03-16T12:07:04.870Z,0.55
2018-03-16T12:08:14.844Z,0.55
2018-03-16T12:09:24.825Z,0.49
2018-03-16T12:10:34.781Z,0.52
2018-03-16T12:11:44.501Z,0.49
2018-03-16T12:12:54.236Z,0.52
2018-03-16T12:14:04.225Z,0.59
2018-03-16T12:15:13.953Z,0.59
2018-03-16T12:16:23.926Z,0.58
2018-03-16T12:17:33.640Z,0.52
2018-03-16T12:18:43.613Z,0.59
2018-03-16T12:19:53.311Z,0.52
2018-03-16T12:21:03.278Z,0.52
2018-03-16T12:22:13.240Z,0.49
2018-03-16T12:23:23.193Z,0.45
2018-03-16T12:24:32.895Z,0.55
2018-03-16T12:25:42.659Z,0.49
2018-03-16T12:26:52.097Z,0.52
2018-03-16T12:28:02.056Z,0.49
2018-03-16T12:29:11.503Z,0.56
2018-03-16T12:30:21.478Z,0.48
2018-03-16T12:31:31.441Z,0.47
2018-03-16T12:32:41.159Z,0.52
2018-03-16T12:33:50.613Z,0.55
2018-03-16T12:35:00.612Z,0.51
2018-03-16T12:36:09.823Z,0.56
2018-03-16T12:37:19.811Z,0.58
2018-03-16T12:38:29.566Z,0.61
2018-03-16T12:39:39.370Z,0.63
2018-03-16T12:40:48.906Z,0.51
2018-03-16T12:41:58.363Z,0.56
2018-03-16T12:43:08.091Z,0.59
2018-03-16T12:44:17.835Z,0.59
2018-03-16T12:45:27.782Z,0.51
2018-03-16T12:46:37.738Z,0.64
2018-03-16T12:47:47.423Z,0.52
2018-03-16T12:48:57.170Z,0.48
2018-03-16T12:50:06.869Z,0.51
2018-03-16T12:51:16.310Z,0.42
2018-03-16T12:52:25.761Z,0.44
2018-03-16T12:53:35.731Z,0.45
2018-03-16T12:54:45.697Z,0.4
2018-03-16T12:55:55.126Z,0.47
2018-03-16T12:57:05.112Z,0.45
2018-03-16T12:58:14.552Z,0.47
2018-03-16T12:59:23.989Z,0.47
2018-03-16T13:00:33.953Z,0.52
2018-03-16T13:01:43.405Z,0.48
2018-03-16T13:02:53.139Z,0.45
2018-03-16T13:04:02.322Z,0.55
2018-03-16T13:05:11.766Z,0.48
2018-03-16T13:06:21.772Z,0.48
2018-03-16T13:07:31.495Z,0.47
2018-03-16T13:08:41.199Z,0.42
2018-03-16T13:09:50.903Z,0.47
2018-03-16T13:11:00.882Z,0.39
2018-03-16T13:12:10.897Z,0.49
2018-03-16T13:13:20.602Z,0.47
2018-03-16T13:14:30.580Z,0.48
2018-03-16T13:15:40.285Z,0.51
2018-03-16T13:16:50.259Z,0.48
2018-03-16T13:18:00.251Z,0.36
2018-03-16T13:19:10.020Z,0.31
2018-03-16T13:20:20.154Z,0.34
2018-03-16T13:21:29.880Z,0.31
2018-03-16T13:22:39.071Z,0.39
2018-03-16T13:23:48.515Z,0.29
2018-03-16T13:24:58.226Z,0.34
2018-03-16T13:26:07.692Z,0.34
2018-03-16T13:27:16.873Z,0.36
2018-03-16T13:28:26.842Z,0.48
2018-03-16T13:29:36.571Z,0.55
2018-03-16T13:30:46.289Z,0.52
2018-03-16T13:31:56.265Z,0.47
2018-03-16T13:33:06.038Z,0.47
2018-03-16T13:34:15.840Z,0.48
2018-03-16T13:35:24.756Z,0.45
2018-03-16T13:36:34.728Z,0.47
2018-03-16T13:37:44.708Z,0.47
2018-03-16T13:38:54.833Z,0.48
2018-03-16T13:40:04.882Z,0.44
2018-03-16T13:41:14.839Z,0.33
2018-03-16T13:42:24.539Z,0.31
2018-03-16T13:43:34.515Z,0.37
2018-03-16T13:44:44.500Z,0.37
2018-03-16T13:45:54.209Z,0.34
2018-03-16T13:47:04.178Z,0.34
2018-03-16T13:48:13.956Z,0.3
2018-03-16T13:49:23.696Z,0.34
2018-03-16T13:50:33.177Z,0.29
2018-03-16T13:51:42.645Z,0.3
2018-03-16T13:52:52.910Z,0.29
2018-03-16T13:54:02.762Z,0.39
2018-03-16T13:55:12.421Z,0.34
2018-03-16T13:56:22.434Z,0.37
2018-03-16T13:57:32.179Z,0.39
2018-03-16T13:58:41.885Z,0.33
2018-03-16T13:59:51.885Z,0.26
2018-03-16T14:01:01.061Z,0.34
2018-03-16T14:02:10.768Z,0.39
2018-03-16T14:03:20.500Z,0.34
2018-03-16T14:04:30.740Z,0.27
2018-03-16T14:05:40.705Z,0.29
2018-03-16T14:06:50.420Z,0.34
2018-03-16T14:07:59.854Z,0.36
2018-03-16T14:09:09.840Z,0.33
2018-03-16T14:10:19.358Z,0.34
2018-03-16T14:11:29.070Z,0.33
2018-03-16T14:12:38.258Z,0.4
2018-03-16T14:13:47.970Z,0.37
2018-03-16T14:14:57.664Z,0.39
2018-03-16T14:16:07.386Z,0.36
2018-03-16T14:17:17.132Z,0.39
2018-03-16T14:18:27.115Z,0.37
2018-03-16T14:19:36.826Z,0.3
2018-03-16T14:20:46.266Z,0.4
2018-03-16T14:21:55.979Z,0.29
2018-03-16T14:23:05.675Z,0.31
2018-03-16T14:24:14.857Z,0.36
2018-03-16T14:25:24.838Z,0.37
2018-03-16T14:26:34.284Z,0.34
2018-03-16T14:27:44.001Z,0.34
2018-03-16T14:28:53.715Z,0.31
2018-03-16T14:30:03.668Z,0.31
2018-03-16T14:31:13.369Z,0.29
2018-03-16T14:32:23.336Z,0.29
2018-03-16T14:33:33.296Z,0.2
2018-03-16T14:34:43.287Z,0.27
2018-03-16T14:35:53.265Z,0.24
2018-03-16T14:37:02.711Z,0.15
2018-03-16T14:38:12.713Z,0.13
2018-03-16T14:39:22.701Z,0.13
2018-03-16T14:40:32.407Z,0
2018-03-16T14:41:42.409Z,0
2018-03-16T14:42:52.112Z,0.12
2018-03-16T14:44:02.072Z,0.02
2018-03-16T14:45:12.027Z,0.02
2018-03-16T14:46:21.857Z,0.01
2018-03-16T14:47:31.838Z,-0.07
2018-03-16T14:48:41.568Z,-0.06
2018-03-16T14:49:51.018Z,-0.03
2018-03-16T14:51:00.716Z,-0.1
2018-03-16T14:52:10.422Z,-0.06
2018-03-16T14:53:20.383Z,-0.02
2018-03-16T14:54:30.354Z,0.05
2018-03-16T14:55:40.318Z,0
2018-03-16T14:56:50.281Z,0.06
2018-03-16T14:58:00.248Z,0.06
2018-03-16T14:59:10.279Z,0.05
2018-03-16T15:00:19.995Z,0.11
2018-03-16T15:01:29.973Z,0.11
2018-03-16T15:02:39.693Z,0.13
2018-03-16T15:03:49.135Z,-0.03
2018-03-16T15:04:58.583Z,0
2018-03-16T15:06:08.303Z,0.08
2018-03-16T15:07:18.019Z,0.02
2018-03-16T15:08:27.452Z,-0.03
2018-03-16T15:09:36.893Z,-0.05
2018-03-16T15:10:46.594Z,-0.05
2018-03-16T15:11:56.300Z,-0.05
2018-03-16T15:13:06.254Z,-0.15
2018-03-16T15:14:15.955Z,-0.03
2018-03-16T15:15:25.932Z,-0.09
2018-03-16T15:16:35.892Z,-0.1
2018-03-16T15:17:45.340Z,-0.05
2018-03-16T15:18:55.324Z,-0.03
2018-03-16T15:20:05.347Z,-0.17
2018-03-16T15:21:15.058Z,-0.07
2018-03-16T15:22:24.761Z,-0.06
2018-03-16T15:23:34.481Z,-0.09
2018-03-16T15:24:44.209Z,-0.07
2018-03-16T15:25:54.225Z,-0.07
2018-03-16T15:27:04.188Z,-0.15
2018-03-16T15:28:14.151Z,-0.17
2018-03-16T15:29:23.859Z,-0.15
2018-03-16T15:30:33.817Z,-0.2
2018-03-16T15:31:43.778Z,-0.13